sensor_id;sensor_type;location;lat;lon;timestamp;pressure;altitude;pressure_sealevel;temperature;humidity
55010;BME280;40903;51.638;7.528;2023-05-22T00:01:08;100808.53;;;17.49;100.00
55010;BME280;40903;51.638;7.528;2023-05-22T00:03:33;100806.47;;;17.46;100.00
55010;BME280;40903;51.638;7.528;2023-05-22T00:06:01;100801.94;;;17.42;100.00
55010;BME280;40903;51.638;7.528;2023-05-22T00:08:26;100806.50;;;17.38;100.00
55010;BME280;40903;51.638;7.528;2023-05-22T00:10:52;100810.22;;;17.33;100.00
55010;BME280;40903;51.638;7.528;2023-05-22T00:13:17;100806.53;;;17.29;100.00
55010;BME280;40903;51.638;7.528;2023-05-22T00:15:42;100807.19;;;17.26;100.00
55010;BME280;40903;51.638;7.528;2023-05-22T00:18:08;100810.63;;;17.23;100.00
55010;BME280;40903;51.638;7.528;2023-05-22T00:20:33;100815.16;;;17.19;100.00
55010;BME280;40903;51.638;7.528;2023-05-22T00:23:02;100811.47;;;17.15;100.00
55010;BME280;40903;51.638;7.528;2023-05-22T00:25:27;100812.13;;;17.12;100.00
55010;BME280;40903;51.638;7.528;2023-05-22T00:27:53;100804.19;;;17.11;100.00
55010;BME280;40903;51.638;7.528;2023-05-22T00:30:18;100797.41;;;17.08;100.00
55010;BME280;40903;51.638;7.528;2023-05-22T00:32:43;100799.19;;;17.04;100.00
55010;BME280;40903;51.638;7.528;2023-05-22T00:35:08;100796.63;;;16.99;100.00
55010;BME280;40903;51.638;7.528;2023-05-22T00:37:34;100790.63;;;16.97;100.00
55010;BME280;40903;51.638;7.528;2023-05-22T00:39:59;100794.38;;;16.93;100.00
55010;BME280;40903;51.638;7.528;2023-05-22T00:42:24;100789.22;;;16.91;100.00
55010;BME280;40903;51.638;7.528;2023-05-22T00:44:50;100791.97;;;16.91;100.00
55010;BME280;40903;51.638;7.528;2023-05-22T00:47:15;100789.84;;;16.88;100.00
55010;BME280;40903;51.638;7.528;2023-05-22T00:49:41;100789.06;;;16.88;100.00
55010;BME280;40903;51.638;7.528;2023-05-22T00:52:06;100791.00;;;16.87;100.00
55010;BME280;40903;51.638;7.528;2023-05-22T00:54:32;100790.03;;;16.83;100.00
55010;BME280;40903;51.638;7.528;2023-05-22T00:56:57;100793.00;;;16.78;100.00
55010;BME280;40903;51.638;7.528;2023-05-22T00:59:24;100795.75;;;16.78;100.00
55010;BME280;40903;51.638;7.528;2023-05-22T01:01:49;100788.16;;;16.75;100.00
55010;BME280;40903;51.638;7.528;2023-05-22T01:04:15;100781.66;;;16.71;100.00
55010;BME280;40903;51.638;7.528;2023-05-22T01:06:42;100779.09;;;16.66;100.00
55010;BME280;40903;51.638;7.528;2023-05-22T01:09:10;100778.63;;;16.64;100.00
55010;BME280;40903;51.638;7.528;2023-05-22T01:14:27;100772.00;;;16.57;100.00
55010;BME280;40903;51.638;7.528;2023-05-22T01:20:05;100772.03;;;16.48;100.00
55010;BME280;40903;51.638;7.528;2023-05-22T01:25:18;100762.19;;;16.39;100.00
55010;BME280;40903;51.638;7.528;2023-05-22T01:28:08;100766.38;;;16.36;100.00
55010;BME280;40903;51.638;7.528;2023-05-22T01:30:41;100772.19;;;16.35;100.00
55010;BME280;40903;51.638;7.528;2023-05-22T01:33:08;100776.72;;;16.31;100.00
55010;BME280;40903;51.638;7.528;2023-05-22T01:35:33;100773.47;;;16.29;100.00
55010;BME280;40903;51.638;7.528;2023-05-22T01:38:00;100780.78;;;16.25;100.00
55010;BME280;40903;51.638;7.528;2023-05-22T01:40:26;100781.91;;;16.24;100.00
55010;BME280;40903;51.638;7.528;2023-05-22T01:42:55;100779.00;;;16.20;100.00
55010;BME280;40903;51.638;7.528;2023-05-22T01:45:20;100788.06;;;16.21;100.00
55010;BME280;40903;51.638;7.528;2023-05-22T01:47:46;100780.47;;;16.18;100.00
55010;BME280;40903;51.638;7.528;2023-05-22T01:50:11;100779.19;;;16.15;100.00
55010;BME280;40903;51.638;7.528;2023-05-22T01:57:31;100776.28;;;16.03;100.00
55010;BME280;40903;51.638;7.528;2023-05-22T02:00:08;100779.69;;;16.00;100.00
55010;BME280;40903;51.638;7.528;2023-05-22T02:02:35;100780.00;;;15.99;100.00
55010;BME280;40903;51.638;7.528;2023-05-22T02:05:02;100777.56;;;15.97;100.00
55010;BME280;40903;51.638;7.528;2023-05-22T02:07:28;100775.16;;;15.96;100.00
55010;BME280;40903;51.638;7.528;2023-05-22T02:09:54;100777.41;;;15.94;100.00
55010;BME280;40903;51.638;7.528;2023-05-22T02:12:21;100782.09;;;15.93;100.00
55010;BME280;40903;51.638;7.528;2023-05-22T02:14:47;100784.84;;;15.93;100.00
55010;BME280;40903;51.638;7.528;2023-05-22T02:17:12;100774.97;;;15.92;100.00
55010;BME280;40903;51.638;7.528;2023-05-22T02:19:38;100781.31;;;15.93;100.00
55010;BME280;40903;51.638;7.528;2023-05-22T02:22:03;100773.34;;;15.91;100.00
55010;BME280;40903;51.638;7.528;2023-05-22T02:24:29;100780.47;;;15.92;100.00
55010;BME280;40903;51.638;7.528;2023-05-22T02:26:54;100767.03;;;15.91;100.00
55010;BME280;40903;51.638;7.528;2023-05-22T02:29:20;100768.34;;;15.93;100.00
55010;BME280;40903;51.638;7.528;2023-05-22T02:31:45;100763.97;;;15.92;100.00
55010;BME280;40903;51.638;7.528;2023-05-22T02:34:10;100760.75;;;15.90;100.00
55010;BME280;40903;51.638;7.528;2023-05-22T02:36:35;100755.56;;;15.89;100.00
55010;BME280;40903;51.638;7.528;2023-05-22T02:39:01;100758.16;;;15.85;100.00
55010;BME280;40903;51.638;7.528;2023-05-22T02:41:26;100748.94;;;15.81;100.00
55010;BME280;40903;51.638;7.528;2023-05-22T02:43:52;100750.41;;;15.79;100.00
55010;BME280;40903;51.638;7.528;2023-05-22T02:46:17;100762.53;;;15.78;100.00
55010;BME280;40903;51.638;7.528;2023-05-22T02:48:42;100752.97;;;15.76;100.00
55010;BME280;40903;51.638;7.528;2023-05-22T02:51:09;100750.88;;;15.73;100.00
55010;BME280;40903;51.638;7.528;2023-05-22T02:53:34;100749.59;;;15.70;100.00
55010;BME280;40903;51.638;7.528;2023-05-22T02:56:05;100753.78;;;15.68;100.00
55010;BME280;40903;51.638;7.528;2023-05-22T02:58:31;100745.03;;;15.66;100.00
55010;BME280;40903;51.638;7.528;2023-05-22T03:00:57;100747.31;;;15.64;100.00
55010;BME280;40903;51.638;7.528;2023-05-22T03:03:22;100746.81;;;15.62;100.00
55010;BME280;40903;51.638;7.528;2023-05-22T03:05:49;100739.72;;;15.61;100.00
55010;BME280;40903;51.638;7.528;2023-05-22T03:08:17;100736.50;;;15.59;100.00
55010;BME280;40903;51.638;7.528;2023-05-22T03:10:43;100742.28;;;15.57;100.00
55010;BME280;40903;51.638;7.528;2023-05-22T03:13:08;100746.50;;;15.55;100.00
55010;BME280;40903;51.638;7.528;2023-05-22T03:15:33;100747.13;;;15.52;100.00
55010;BME280;40903;51.638;7.528;2023-05-22T03:17:59;100748.63;;;15.49;100.00
55010;BME280;40903;51.638;7.528;2023-05-22T03:20:24;100739.53;;;15.49;100.00
55010;BME280;40903;51.638;7.528;2023-05-22T03:22:49;100750.53;;;15.49;100.00
55010;BME280;40903;51.638;7.528;2023-05-22T03:25:15;100740.97;;;15.46;100.00
55010;BME280;40903;51.638;7.528;2023-05-22T03:27:40;100748.44;;;15.46;100.00
55010;BME280;40903;51.638;7.528;2023-05-22T03:30:06;100736.47;;;15.42;100.00
55010;BME280;40903;51.638;7.528;2023-05-22T03:32:31;100741.97;;;15.42;100.00
55010;BME280;40903;51.638;7.528;2023-05-22T03:34:56;100746.16;;;15.39;100.00
55010;BME280;40903;51.638;7.528;2023-05-22T03:37:22;100740.19;;;15.37;100.00
55010;BME280;40903;51.638;7.528;2023-05-22T03:39:47;100731.75;;;15.34;100.00
55010;BME280;40903;51.638;7.528;2023-05-22T03:42:13;100732.09;;;15.32;100.00
55010;BME280;40903;51.638;7.528;2023-05-22T03:44:38;100742.28;;;15.32;100.00
55010;BME280;40903;51.638;7.528;2023-05-22T03:47:04;100733.53;;;15.30;100.00
55010;BME280;40903;51.638;7.528;2023-05-22T03:49:29;100735.47;;;15.29;100.00
55010;BME280;40903;51.638;7.528;2023-05-22T03:51:55;100733.81;;;15.28;100.00
55010;BME280;40903;51.638;7.528;2023-05-22T03:54:20;100739.31;;;15.28;100.00
55010;BME280;40903;51.638;7.528;2023-05-22T03:56:45;100735.78;;;15.28;100.00
55010;BME280;40903;51.638;7.528;2023-05-22T03:59:10;100733.34;;;15.26;100.00
55010;BME280;40903;51.638;7.528;2023-05-22T04:01:36;100724.31;;;15.26;100.00
55010;BME280;40903;51.638;7.528;2023-05-22T04:04:03;100720.72;;;15.25;100.00
55010;BME280;40903;51.638;7.528;2023-05-22T04:06:29;100727.03;;;15.26;100.00
55010;BME280;40903;51.638;7.528;2023-05-22T04:08:57;100723.97;;;15.27;100.00
55010;BME280;40903;51.638;7.528;2023-05-22T04:11:22;100722.03;;;15.28;100.00
55010;BME280;40903;51.638;7.528;2023-05-22T04:13:48;100724.78;;;15.28;100.00
55010;BME280;40903;51.638;7.528;2023-05-22T04:16:13;100726.41;;;15.29;100.00
55010;BME280;40903;51.638;7.528;2023-05-22T04:18:41;100726.91;;;15.31;100.00
55010;BME280;40903;51.638;7.528;2023-05-22T04:21:06;100732.09;;;15.32;100.00
55010;BME280;40903;51.638;7.528;2023-05-22T04:23:33;100733.38;;;15.35;100.00
55010;BME280;40903;51.638;7.528;2023-05-22T04:25:59;100738.22;;;15.38;100.00
55010;BME280;40903;51.638;7.528;2023-05-22T04:28:26;100729.38;;;15.41;100.00
55010;BME280;40903;51.638;7.528;2023-05-22T04:30:52;100731.13;;;15.45;100.00
55010;BME280;40903;51.638;7.528;2023-05-22T04:33:18;100734.03;;;15.49;100.00
55010;BME280;40903;51.638;7.528;2023-05-22T04:35:43;100730.66;;;15.52;100.00
55010;BME280;40903;51.638;7.528;2023-05-22T04:38:08;100728.91;;;15.56;100.00
55010;BME280;40903;51.638;7.528;2023-05-22T04:40:34;100730.50;;;15.57;100.00
55010;BME280;40903;51.638;7.528;2023-05-22T04:43:01;100725.97;;;15.61;100.00
55010;BME280;40903;51.638;7.528;2023-05-22T04:45:27;100729.69;;;15.65;100.00
55010;BME280;40903;51.638;7.528;2023-05-22T04:47:52;100725.97;;;15.69;100.00
55010;BME280;40903;51.638;7.528;2023-05-22T04:50:18;100724.19;;;15.73;100.00
55010;BME280;40903;51.638;7.528;2023-05-22T04:52:44;100726.44;;;15.79;100.00
55010;BME280;40903;51.638;7.528;2023-05-22T04:55:10;100722.41;;;15.85;100.00
55010;BME280;40903;51.638;7.528;2023-05-22T04:57:38;100717.53;;;15.91;100.00
55010;BME280;40903;51.638;7.528;2023-05-22T05:00:04;100726.44;;;15.96;100.00
55010;BME280;40903;51.638;7.528;2023-05-22T05:02:30;100714.94;;;16.03;100.00
55010;BME280;40903;51.638;7.528;2023-05-22T05:04:56;100719.94;;;16.09;100.00
55010;BME280;40903;51.638;7.528;2023-05-22T05:07:21;100725.25;;;16.14;100.00
55010;BME280;40903;51.638;7.528;2023-05-22T05:09:47;100721.22;;;16.20;100.00
55010;BME280;40903;51.638;7.528;2023-05-22T05:12:13;100722.66;;;16.26;100.00
55010;BME280;40903;51.638;7.528;2023-05-22T05:14:38;100717.78;;;16.32;100.00
55010;BME280;40903;51.638;7.528;2023-05-22T05:17:03;100718.94;;;16.39;100.00
55010;BME280;40903;51.638;7.528;2023-05-22T05:19:28;100721.00;;;16.42;100.00
55010;BME280;40903;51.638;7.528;2023-05-22T05:21:54;100723.13;;;16.45;100.00
55010;BME280;40903;51.638;7.528;2023-05-22T05:24:19;100719.53;;;16.53;100.00
55010;BME280;40903;51.638;7.528;2023-05-22T05:26:44;100731.19;;;16.59;100.00
55010;BME280;40903;51.638;7.528;2023-05-22T05:29:10;100721.94;;;16.63;100.00
55010;BME280;40903;51.638;7.528;2023-05-22T05:31:36;100724.19;;;16.70;100.00
55010;BME280;40903;51.638;7.528;2023-05-22T05:34:01;100724.94;;;16.79;100.00
55010;BME280;40903;51.638;7.528;2023-05-22T05:36:27;100733.81;;;16.84;100.00
55010;BME280;40903;51.638;7.528;2023-05-22T05:38:53;100732.00;;;16.88;100.00
55010;BME280;40903;51.638;7.528;2023-05-22T05:41:18;100730.34;;;16.96;100.00
55010;BME280;40903;51.638;7.528;2023-05-22T05:43:43;100731.44;;;17.03;100.00
55010;BME280;40903;51.638;7.528;2023-05-22T05:46:08;100737.56;;;17.09;100.00
55010;BME280;40903;51.638;7.528;2023-05-22T05:48:34;100734.31;;;17.15;100.00
55010;BME280;40903;51.638;7.528;2023-05-22T05:50:59;100742.88;;;17.22;100.00
55010;BME280;40903;51.638;7.528;2023-05-22T05:53:24;100734.41;;;17.27;100.00
55010;BME280;40903;51.638;7.528;2023-05-22T05:55:49;100742.13;;;17.34;100.00
55010;BME280;40903;51.638;7.528;2023-05-22T05:58:15;100746.00;;;17.41;100.00
55010;BME280;40903;51.638;7.528;2023-05-22T06:00:40;100752.59;;;17.49;100.00
55010;BME280;40903;51.638;7.528;2023-05-22T06:03:06;100754.38;;;17.53;100.00
55010;BME280;40903;51.638;7.528;2023-05-22T06:05:31;100755.44;;;17.61;100.00
55010;BME280;40903;51.638;7.528;2023-05-22T06:07:56;100751.69;;;17.65;100.00
55010;BME280;40903;51.638;7.528;2023-05-22T06:10:22;100758.28;;;17.73;100.00
55010;BME280;40903;51.638;7.528;2023-05-22T06:12:48;100757.25;;;17.77;100.00
55010;BME280;40903;51.638;7.528;2023-05-22T06:15:13;100762.59;;;17.82;100.00
55010;BME280;40903;51.638;7.528;2023-05-22T06:17:38;100761.91;;;17.85;100.00
55010;BME280;40903;51.638;7.528;2023-05-22T06:20:03;100757.31;;;17.89;100.00
55010;BME280;40903;51.638;7.528;2023-05-22T06:22:31;100763.91;;;17.96;100.00
55010;BME280;40903;51.638;7.528;2023-05-22T06:24:56;100753.16;;;18.03;100.00
55010;BME280;40903;51.638;7.528;2023-05-22T06:27:21;100755.81;;;18.12;100.00
55010;BME280;40903;51.638;7.528;2023-05-22T06:29:48;100757.94;;;18.27;100.00
55010;BME280;40903;51.638;7.528;2023-05-22T06:32:13;100764.00;;;18.41;100.00
55010;BME280;40903;51.638;7.528;2023-05-22T06:34:38;100761.25;;;18.53;100.00
55010;BME280;40903;51.638;7.528;2023-05-22T06:37:04;100761.75;;;18.67;100.00
55010;BME280;40903;51.638;7.528;2023-05-22T06:39:30;100763.63;;;18.87;100.00
55010;BME280;40903;51.638;7.528;2023-05-22T06:41:55;100770.09;;;19.03;100.00
55010;BME280;40903;51.638;7.528;2023-05-22T06:44:20;100770.88;;;19.15;100.00
55010;BME280;40903;51.638;7.528;2023-05-22T06:46:46;100774.72;;;19.23;100.00
55010;BME280;40903;51.638;7.528;2023-05-22T06:49:11;100775.41;;;19.32;100.00
55010;BME280;40903;51.638;7.528;2023-05-22T06:51:36;100774.59;;;19.43;100.00
55010;BME280;40903;51.638;7.528;2023-05-22T06:54:02;100770.66;;;19.56;100.00
55010;BME280;40903;51.638;7.528;2023-05-22T06:56:30;100768.56;;;19.65;100.00
55010;BME280;40903;51.638;7.528;2023-05-22T06:58:56;100763.38;;;19.76;100.00
55010;BME280;40903;51.638;7.528;2023-05-22T07:01:21;100764.13;;;19.88;100.00
55010;BME280;40903;51.638;7.528;2023-05-22T07:03:47;100767.44;;;19.93;100.00
55010;BME280;40903;51.638;7.528;2023-05-22T07:06:12;100764.75;;;19.97;100.00
55010;BME280;40903;51.638;7.528;2023-05-22T07:08:37;100771.56;;;19.99;100.00
55010;BME280;40903;51.638;7.528;2023-05-22T07:11:03;100776.09;;;20.04;100.00
55010;BME280;40903;51.638;7.528;2023-05-22T07:13:30;100776.19;;;20.07;100.00
55010;BME280;40903;51.638;7.528;2023-05-22T07:15:56;100775.50;;;20.10;100.00
55010;BME280;40903;51.638;7.528;2023-05-22T07:18:21;100774.44;;;20.15;100.00
55010;BME280;40903;51.638;7.528;2023-05-22T07:20:47;100775.44;;;20.22;100.00
55010;BME280;40903;51.638;7.528;2023-05-22T07:23:12;100766.16;;;20.30;100.00
55010;BME280;40903;51.638;7.528;2023-05-22T07:25:37;100773.41;;;20.35;100.00
55010;BME280;40903;51.638;7.528;2023-05-22T07:28:03;100778.25;;;20.38;100.00
55010;BME280;40903;51.638;7.528;2023-05-22T07:30:34;100779.06;;;20.38;100.00
55010;BME280;40903;51.638;7.528;2023-05-22T07:33:00;100784.78;;;20.45;100.00
55010;BME280;40903;51.638;7.528;2023-05-22T07:35:25;100778.28;;;20.53;100.00
55010;BME280;40903;51.638;7.528;2023-05-22T07:37:50;100778.69;;;20.67;100.00
55010;BME280;40903;51.638;7.528;2023-05-22T07:40:16;100775.03;;;20.94;100.00
55010;BME280;40903;51.638;7.528;2023-05-22T07:42:41;100778.06;;;21.20;100.00
55010;BME280;40903;51.638;7.528;2023-05-22T07:45:06;100779.38;;;21.42;100.00
55010;BME280;40903;51.638;7.528;2023-05-22T07:47:32;100779.00;;;21.59;100.00
55010;BME280;40903;51.638;7.528;2023-05-22T07:49:57;100775.31;;;21.70;100.00
55010;BME280;40903;51.638;7.528;2023-05-22T07:52:22;100780.91;;;21.89;100.00
55010;BME280;40903;51.638;7.528;2023-05-22T07:54:48;100778.06;;;22.04;100.00
55010;BME280;40903;51.638;7.528;2023-05-22T07:57:13;100780.47;;;22.25;99.68
55010;BME280;40903;51.638;7.528;2023-05-22T07:59:40;100788.09;;;22.47;100.00
55010;BME280;40903;51.638;7.528;2023-05-22T08:02:08;100785.03;;;22.74;100.00
55010;BME280;40903;51.638;7.528;2023-05-22T08:04:34;100783.13;;;23.01;97.61
55010;BME280;40903;51.638;7.528;2023-05-22T08:06:59;100787.56;;;23.28;97.64
55010;BME280;40903;51.638;7.528;2023-05-22T08:09:25;100785.88;;;23.46;93.48
55010;BME280;40903;51.638;7.528;2023-05-22T08:11:50;100792.94;;;23.66;90.15
55010;BME280;40903;51.638;7.528;2023-05-22T08:14:15;100790.34;;;23.80;93.69
55010;BME280;40903;51.638;7.528;2023-05-22T08:16:41;100792.09;;;23.88;90.98
55010;BME280;40903;51.638;7.528;2023-05-22T08:19:06;100796.34;;;24.08;90.94
55010;BME280;40903;51.638;7.528;2023-05-22T08:21:31;100789.75;;;24.22;90.14
55010;BME280;40903;51.638;7.528;2023-05-22T08:24:01;100796.63;;;24.32;87.54
55010;BME280;40903;51.638;7.528;2023-05-22T08:26:26;100793.22;;;24.45;89.34
55010;BME280;40903;51.638;7.528;2023-05-22T08:28:52;100787.84;;;24.63;85.54
55010;BME280;40903;51.638;7.528;2023-05-22T08:31:17;100792.44;;;24.81;86.00
55010;BME280;40903;51.638;7.528;2023-05-22T08:33:42;100793.28;;;24.85;83.57
55010;BME280;40903;51.638;7.528;2023-05-22T08:36:08;100785.03;;;24.99;77.92
55010;BME280;40903;51.638;7.528;2023-05-22T08:38:33;100793.06;;;25.04;80.30
55010;BME280;40903;51.638;7.528;2023-05-22T08:40:58;100794.09;;;25.26;82.26
55010;BME280;40903;51.638;7.528;2023-05-22T08:43:24;100794.69;;;25.52;80.93
55010;BME280;40903;51.638;7.528;2023-05-22T08:45:54;100790.81;;;25.74;75.22
55010;BME280;40903;51.638;7.528;2023-05-22T08:48:22;100792.53;;;25.89;77.46
55010;BME280;40903;51.638;7.528;2023-05-22T08:50:47;100786.25;;;26.03;74.41
55010;BME280;40903;51.638;7.528;2023-05-22T08:53:21;100784.63;;;26.05;70.87
55010;BME280;40903;51.638;7.528;2023-05-22T08:55:47;100787.88;;;26.07;74.06
55010;BME280;40903;51.638;7.528;2023-05-22T08:58:13;100790.66;;;26.07;77.08
55010;BME280;40903;51.638;7.528;2023-05-22T09:00:39;100786.28;;;26.20;76.17
55010;BME280;40903;51.638;7.528;2023-05-22T09:03:05;100784.00;;;26.43;74.65
55010;BME280;40903;51.638;7.528;2023-05-22T09:05:33;100796.47;;;26.59;73.75
55010;BME280;40903;51.638;7.528;2023-05-22T09:08:01;100792.09;;;26.86;73.85
55010;BME280;40903;51.638;7.528;2023-05-22T09:10:28;100788.94;;;26.91;71.43
55010;BME280;40903;51.638;7.528;2023-05-22T09:13:03;100794.94;;;27.04;68.10
55010;BME280;40903;51.638;7.528;2023-05-22T09:15:29;100793.78;;;27.19;69.67
55010;BME280;40903;51.638;7.528;2023-05-22T09:17:55;100796.56;;;27.19;67.18
55010;BME280;40903;51.638;7.528;2023-05-22T09:20:20;100790.56;;;27.31;64.00
55010;BME280;40903;51.638;7.528;2023-05-22T09:22:45;100783.75;;;27.46;68.14
55010;BME280;40903;51.638;7.528;2023-05-22T09:25:11;100788.53;;;27.66;70.93
55010;BME280;40903;51.638;7.528;2023-05-22T09:27:43;100783.72;;;27.84;68.90
55010;BME280;40903;51.638;7.528;2023-05-22T09:30:09;100784.47;;;27.99;66.24
55010;BME280;40903;51.638;7.528;2023-05-22T09:32:34;100782.41;;;28.13;65.12
55010;BME280;40903;51.638;7.528;2023-05-22T09:35:02;100784.75;;;28.29;61.62
55010;BME280;40903;51.638;7.528;2023-05-22T09:37:31;100784.75;;;28.32;63.01
55010;BME280;40903;51.638;7.528;2023-05-22T09:39:57;100781.16;;;28.25;61.30
55010;BME280;40903;51.638;7.528;2023-05-22T09:42:22;100786.81;;;28.14;60.98
55010;BME280;40903;51.638;7.528;2023-05-22T09:44:48;100779.56;;;28.17;61.25
55010;BME280;40903;51.638;7.528;2023-05-22T09:47:14;100776.75;;;28.24;65.08
55010;BME280;40903;51.638;7.528;2023-05-22T09:49:42;100773.88;;;28.45;66.37
55010;BME280;40903;51.638;7.528;2023-05-22T09:52:08;100771.34;;;28.67;63.74
55010;BME280;40903;51.638;7.528;2023-05-22T09:54:34;100773.84;;;28.55;59.05
55010;BME280;40903;51.638;7.528;2023-05-22T09:57:00;100770.13;;;28.72;62.96
55010;BME280;40903;51.638;7.528;2023-05-22T09:59:26;100773.16;;;28.98;61.60
55010;BME280;40903;51.638;7.528;2023-05-22T10:01:53;100772.66;;;29.10;59.35
55010;BME280;40903;51.638;7.528;2023-05-22T10:04:20;100767.13;;;29.00;59.58
55010;BME280;40903;51.638;7.528;2023-05-22T10:06:48;100770.63;;;29.11;59.42
55010;BME280;40903;51.638;7.528;2023-05-22T10:09:14;100763.75;;;29.22;59.37
55010;BME280;40903;51.638;7.528;2023-05-22T10:11:41;100766.44;;;29.33;57.55
55010;BME280;40903;51.638;7.528;2023-05-22T10:14:07;100762.31;;;29.44;55.98
55010;BME280;40903;51.638;7.528;2023-05-22T10:16:33;100767.44;;;29.56;54.83
55010;BME280;40903;51.638;7.528;2023-05-22T10:19:02;100766.22;;;29.61;57.21
55010;BME280;40903;51.638;7.528;2023-05-22T10:21:28;100766.44;;;29.77;55.21
55010;BME280;40903;51.638;7.528;2023-05-22T10:23:54;100763.13;;;29.85;54.10
55010;BME280;40903;51.638;7.528;2023-05-22T10:26:19;100766.78;;;29.82;53.63
55010;BME280;40903;51.638;7.528;2023-05-22T10:28:46;100760.91;;;30.03;55.28
55010;BME280;40903;51.638;7.528;2023-05-22T10:31:17;100759.38;;;29.95;56.91
55010;BME280;40903;51.638;7.528;2023-05-22T10:33:50;100764.03;;;29.75;54.74
55010;BME280;40903;51.638;7.528;2023-05-22T10:36:26;100761.16;;;29.82;57.47
55010;BME280;40903;51.638;7.528;2023-05-22T10:39:10;100762.75;;;29.83;54.20
55010;BME280;40903;51.638;7.528;2023-05-22T10:41:44;100763.88;;;29.52;56.90
55010;BME280;40903;51.638;7.528;2023-05-22T10:44:09;100756.50;;;29.65;56.26
55010;BME280;40903;51.638;7.528;2023-05-22T10:46:35;100762.72;;;29.43;56.75
55010;BME280;40903;51.638;7.528;2023-05-22T10:49:00;100759.78;;;29.60;55.86
55010;BME280;40903;51.638;7.528;2023-05-22T10:51:25;100749.84;;;29.86;55.60
55010;BME280;40903;51.638;7.528;2023-05-22T10:53:51;100760.16;;;29.99;53.90
55010;BME280;40903;51.638;7.528;2023-05-22T10:56:17;100749.06;;;30.19;55.29
55010;BME280;40903;51.638;7.528;2023-05-22T10:58:43;100746.97;;;29.93;54.78
55010;BME280;40903;51.638;7.528;2023-05-22T11:09:47;100750.78;;;30.39;50.71
55010;BME280;40903;51.638;7.528;2023-05-22T11:11:48;100751.16;;;30.11;51.12
55010;BME280;40903;51.638;7.528;2023-05-22T11:14:32;100746.91;;;29.96;51.27
55010;BME280;40903;51.638;7.528;2023-05-22T11:17:00;100744.88;;;30.00;51.61
55010;BME280;40903;51.638;7.528;2023-05-22T11:19:25;100739.47;;;30.16;52.77
55010;BME280;40903;51.638;7.528;2023-05-22T11:21:51;100733.16;;;30.35;54.21
55010;BME280;40903;51.638;7.528;2023-05-22T11:24:16;100738.31;;;30.40;50.17
55010;BME280;40903;51.638;7.528;2023-05-22T11:26:42;100742.81;;;30.64;50.41
55010;BME280;40903;51.638;7.528;2023-05-22T11:29:07;100737.13;;;30.94;50.23
55010;BME280;40903;51.638;7.528;2023-05-22T11:31:35;100739.06;;;31.23;49.59
55010;BME280;40903;51.638;7.528;2023-05-22T11:34:01;100741.72;;;31.07;47.71
55010;BME280;40903;51.638;7.528;2023-05-22T11:36:26;100737.97;;;30.91;45.78
55010;BME280;40903;51.638;7.528;2023-05-22T11:38:56;100736.03;;;30.88;48.47
55010;BME280;40903;51.638;7.528;2023-05-22T11:41:21;100738.84;;;30.88;46.17
55010;BME280;40903;51.638;7.528;2023-05-22T11:43:46;100726.94;;;31.00;50.96
55010;BME280;40903;51.638;7.528;2023-05-22T11:46:12;100726.19;;;31.22;49.30
55010;BME280;40903;51.638;7.528;2023-05-22T11:48:41;100726.78;;;31.33;47.73
55010;BME280;40903;51.638;7.528;2023-05-22T11:51:07;100725.22;;;31.32;47.33
55010;BME280;40903;51.638;7.528;2023-05-22T11:53:32;100728.75;;;31.36;47.66
55010;BME280;40903;51.638;7.528;2023-05-22T11:56:01;100725.31;;;31.48;47.09
55010;BME280;40903;51.638;7.528;2023-05-22T11:58:27;100716.91;;;31.68;50.42
55010;BME280;40903;51.638;7.528;2023-05-22T12:00:56;100726.75;;;31.99;48.23
55010;BME280;40903;51.638;7.528;2023-05-22T12:03:22;100722.13;;;31.89;45.86
55010;BME280;40903;51.638;7.528;2023-05-22T12:05:47;100720.75;;;31.97;44.12
55010;BME280;40903;51.638;7.528;2023-05-22T12:08:14;100721.16;;;31.76;47.02
55010;BME280;40903;51.638;7.528;2023-05-22T12:10:44;100718.94;;;31.87;44.80
55010;BME280;40903;51.638;7.528;2023-05-22T12:13:10;100721.81;;;32.03;42.48
55010;BME280;40903;51.638;7.528;2023-05-22T12:15:35;100715.97;;;31.94;42.77
55010;BME280;40903;51.638;7.528;2023-05-22T12:18:00;100719.66;;;31.91;43.46
55010;BME280;40903;51.638;7.528;2023-05-22T12:20:29;100714.06;;;32.07;45.11
55010;BME280;40903;51.638;7.528;2023-05-22T12:22:55;100717.75;;;32.04;41.30
55010;BME280;40903;51.638;7.528;2023-05-22T12:25:20;100711.06;;;31.98;43.62
55010;BME280;40903;51.638;7.528;2023-05-22T12:27:49;100715.91;;;31.78;44.79
55010;BME280;40903;51.638;7.528;2023-05-22T12:30:15;100709.31;;;31.84;45.24
55010;BME280;40903;51.638;7.528;2023-05-22T12:32:45;100707.00;;;31.99;43.61
55010;BME280;40903;51.638;7.528;2023-05-22T12:35:13;100713.28;;;31.87;44.75
55010;BME280;40903;51.638;7.528;2023-05-22T12:37:39;100715.56;;;31.53;41.64
55010;BME280;40903;51.638;7.528;2023-05-22T12:40:04;100717.94;;;31.54;43.42
55010;BME280;40903;51.638;7.528;2023-05-22T12:42:30;100715.09;;;31.54;43.31
55010;BME280;40903;51.638;7.528;2023-05-22T12:44:55;100714.69;;;31.56;44.39
55010;BME280;40903;51.638;7.528;2023-05-22T12:47:21;100716.72;;;31.55;44.04
55010;BME280;40903;51.638;7.528;2023-05-22T12:49:46;100724.88;;;31.50;41.83
55010;BME280;40903;51.638;7.528;2023-05-22T12:52:12;100715.66;;;31.26;43.23
55010;BME280;40903;51.638;7.528;2023-05-22T12:54:37;100711.53;;;31.31;43.12
55010;BME280;40903;51.638;7.528;2023-05-22T12:57:02;100712.28;;;31.35;43.68
55010;BME280;40903;51.638;7.528;2023-05-22T12:59:27;100714.75;;;31.33;44.46